Observations de surface / France / LFRB

Québec | Canada | États-Unis | France | UK | Europe | Ailleurs

Affichage: Infos & localisation pour LFRB | Aide pour décoder les METARs

LFRB BREST/GUIPAVAS -- FR
Raw surface observations for station LFRB
LFRB 211700Z AUTO 08003KT 5000 BR NSC 03/M00 Q1023 NOSIG=
LFRB 211630Z AUTO 11005KT 6000 NSC 04/00 Q1023 TEMPO 3000 BR=
LFRB 211600Z AUTO 10004KT 7000 NSC 05/01 Q1023 TEMPO 3000 BR=
LFRB 211530Z AUTO 12005KT 090V150 9000 NSC 06/00 Q1023 TEMPO 3000 BR=
LFRB 211500Z AUTO 11004KT 080V140 CAVOK 06/00 Q1023 TEMPO 3000 BR=
LFRB 211430Z AUTO 09004KT CAVOK 06/00 Q1023 TEMPO 3000 BR=
LFRB 211400Z AUTO VRB03KT 7000 NSC 06/01 Q1024 TEMPO 3000 BR=
LFRB 211330Z AUTO VRB02KT 7000 NSC 05/01 Q1024 TEMPO 3000 BR=
LFRB 211300Z AUTO VRB01KT 7000 NSC 05/01 Q1024 TEMPO 3000 BR=
LFRB 211230Z AUTO VRB02KT 6000 NSC 05/01 Q1025 TEMPO 3000 BR=
LFRB 211200Z AUTO VRB02KT 5000 BR NSC 05/00 Q1025 NOSIG=
LFRB 211130Z AUTO VRB02KT 5000 BR NSC 05/01 Q1025 NOSIG=
LFRB 211100Z AUTO 16003KT 5000 BR NSC 04/00 Q1025 NOSIG=
LFRB 211030Z AUTO 15003KT 4500 BR NSC 03/M00 Q1025 BECMG 6000 NSW=
LFRB 211000Z AUTO 14006KT 3900 BR NSC 02/M01 Q1025 BECMG 6000 NSW=
LFRB 210930Z AUTO 14006KT 3400 BR NSC 00/M01 Q1025 BECMG 6000 NSW=
LFRB 210900Z AUTO 13004KT 3000 BR NSC M02/M02 Q1025 BECMG 6000 NSW=
LFRB 210830Z AUTO 15005KT 3200 BR NSC M03/M03 Q1025 BECMG 6000 NSW=
LFRB 210800Z AUTO 15004KT 3500 BR NSC M03/M03 Q1025 BECMG 6000 NSW=
LFRB 210730Z AUTO 17002KT 4400 BR NSC M02/M03 Q1025 BECMG 6000 NSW=
LFRB 210700Z AUTO 19002KT 4500 BR NSC M02/M03 Q1025 BECMG 6000 NSW=
LFRB 210630Z AUTO 14003KT 4900 BR SCT026 M01/M03 Q1025 BECMG 6000 NSW=
LFRB 210600Z AUTO 13003KT 5000 BR OVC025 M01/M03 Q1025 NOSIG=
LFRB 210530Z AUTO 14003KT 5000 BR OVC025 M01/M03 Q1025 NOSIG=
LFRB 210500Z AUTO 00000KT 5000 BR OVC026 M01/M02 Q1025 NOSIG=
LFRB 210430Z AUTO VRB02KT 5000 BR OVC027 M01/M03 Q1025 NOSIG=
LFRB 210400Z AUTO 13006KT 5000 BR OVC026 M01/M03 Q1025 NOSIG=
LFRB 210330Z AUTO 12006KT 5000 BR OVC025 M01/M03 Q1026 NOSIG=
LFRB 210300Z AUTO 11006KT 5000 BR OVC024 M01/M03 Q1026 NOSIG=
LFRB 210230Z AUTO 11004KT 010V160 5000 BR OVC023 M01/M03 Q1026 NOSIG=
LFRB 210200Z AUTO 13006KT 5000 BR OVC022 M02/M04 Q1026 NOSIG=
LFRB 210130Z AUTO VRB02KT 5000 BR BKN023 M02/M04 Q1026 NOSIG=
LFRB 210100Z AUTO 12005KT 6000 SCT023 M03/M05 Q1027 NOSIG=
LFRB 210030Z AUTO 13004KT 6000 NSC M03/M05 Q1027 NOSIG=
LFRB 210000Z AUTO 12005KT 6000 NSC M03/M05 Q1027 NOSIG=
LFRB 202330Z AUTO 13006KT 6000 NSC M03/M05 Q1027 NOSIG=
LFRB 202300Z AUTO 13005KT 6000 NSC M03/M05 Q1027 NOSIG=
LFRB 202230Z AUTO 13005KT 6000 NSC M03/M06 Q1027 NOSIG=
LFRB 202200Z AUTO 13004KT 7000 NSC M03/M05 Q1027 NOSIG=
LFRB 202130Z AUTO 14003KT 7000 NSC M02/M05 Q1027 NOSIG=
LFRB 202100Z AUTO 14004KT 7000 NSC M02/M05 Q1027 NOSIG=
LFRB 202030Z AUTO 14006KT 8000 NSC M02/M05 Q1027 NOSIG=
LFRB 202000Z AUTO 13004KT 8000 NSC M02/M05 Q1027 NOSIG=
LFRB 201930Z AUTO 12006KT 8000 NSC M02/M05 Q1027 NOSIG=
LFRB 201900Z AUTO 13004KT 7000 NSC M02/M04 Q1027 NOSIG=
LFRB 201830Z AUTO 13002KT 6000 NSC M02/M04 Q1026 NOSIG=
LFRB 201800Z AUTO VRB01KT 7000 NSC M01/M04 Q1026 NOSIG=
LFRB 201730Z AUTO 04003KT 9000 NSC 00/M04 Q1026 NOSIG=
LFRB 201700Z AUTO 05004KT CAVOK 01/M04 Q1026 NOSIG=